Eighty Eight, KY (42130)

7:34 AM CDT on April 29, 2017 (GMT -0500)
Scout Reservation | | Change Station

Elev 780 ft 36.90 °N, 85.88 °W | Updated 11 seconds ago

Mostly Cloudy
Mostly Cloudy
73.9 °F
Feels Like 73 °F
N
1.2
Wind Variable Wind from SE
Gusts 5.0 mph

Today
High -- | Low -- °F
--% Chance of Precip.
Yesterday
High -- | Low -- °F
Precip. -- in
Pressure 30.01 in
Visibility 10.0 miles
Clouds Scattered Clouds 3300 ft
Overcast 4400 ft
Heat Index 73 °F
Dew Point 69 °F
Humidity 84%
Rainfall 0.00 in
Snow Depth Not available.
5:50 AM 7:30 PM
Waxing Crescent, 13% visible
METAR KGLW 291210Z AUTO 18004KT 10SM SCT033 OVC044 23/19 A3001 RMK AO2 LTG DSNT N T02300188
Pressure 30.01 in
Visibility 10.0 miles
Clouds Scattered Clouds 3300 ft
Overcast 4400 ft
Heat Index 73 °F
Dew Point 69 °F
Humidity 84%
Rainfall 0.00 in
Snow Depth Not available.
5:50 AM 7:30 PM
Waxing Crescent, 13% visible
METAR KGLW 291210Z AUTO 18004KT 10SM SCT033 OVC044 23/19 A3001 RMK AO2 LTG DSNT N T02300188

Get Severe Weather Alerts

Thanks for signing up!

Be on the lookout for a verification email in your inbox.

You'll start receiving the daily forecast at 8 AM.

×

10-Day Weather Forecast

Almanac

Astronomy

Apr. 29, 2017 Rise Set
Actual Time
Civil Twilight
Nautical Twilight
Astronomical Twilight
Moon
Length of Visible Light
Length of Day
Tomorrow will be .
, % of the Moon is Illuminated

Today's Extremes

State Highs State Lows

Community

WunderPhotos

WunderBlog® & News

Nearby

Air Quality

  Air Quality AQ Index Pollutant
Not available.

Snow Depth

Station Depth Elevation

Earthquake Activity

City Distance Mag. Time & Date
Minimum magnitude displayed is 2.5.

Coastal Water Temperatures

Place Temperature

Stations

Nearby Weather Stations

Station Location Temp. Windchill Dew Point Humidity Wind Precip. Elev Updated Type
                   

Watches & Warnings

There are currently no watches in effect.